Radcliffe, Iowa
Current Conditions -  °F | °C
As of 7:15 PM on Saturday 20 Dec 2014 (Local Time) from KIFA Reporting Station
Moderate Fog Moderate Fog  
Wind Chill: 24°   Ceiling: 200
Heat Index: 32°   Visibility: 0.5mi
Dew Point: 31°   Wind: 9mph
Humidity: 98%   Direction: 130°SE
Pressure: 30.14"   Gusts: NA
Location:  42.32°N, 93.43°W
Report Text: KIFA 210115Z AUTO 13008KT 1/2SM FG OVC002 00/00 A3014 RMK AO2 T00001003
Loading
Personal Weather Stations






























Interactive Weather Map New forecast layout! Learn more

10-Day Weather Forecast

Advertisements
Track Severe Weather on mobile